X  ZavřítMETAR data      LKPD Pardubice Airport

Teplota

14°C Teplota

8°C Rosný bod

67% Vlhkost



Vítr

16 KM/H

10 MPH

 4 M/S

 9 KTS



240°
ZJZ směr
Současné podmínky

Jasno Jasno
Tlak vzduchu 1019.92 (hPa) - 30.12 (in)
Dohlednost 6.2 (mi) - 10 (km)
Letiště
Kód letiště LKPD

Lokace Pardubice Airport 80 (km)

Metar:
LKPD 262330Z 24009KT CAVOK 14/08 Q1020 RMK BLU

Čas: 27-05-2022 01:30